sensor_id;sensor_type;location;lat;lon;timestamp;pressure;altitude;pressure_sealevel;temperature;humidity
15817;BME280;8009;50.070;8.232;2023-04-26T00:00:32;100149.19;;;7.62;56.67
15817;BME280;8009;50.070;8.232;2023-04-26T00:03:00;100150.72;;;7.66;56.27
15817;BME280;8009;50.070;8.232;2023-04-26T00:05:29;100157.28;;;7.31;58.26
15817;BME280;8009;50.070;8.232;2023-04-26T00:07:59;100160.84;;;6.86;59.22
15817;BME280;8009;50.070;8.232;2023-04-26T00:10:28;100158.91;;;7.04;58.12
15817;BME280;8009;50.070;8.232;2023-04-26T00:12:59;100159.88;;;7.63;57.39
15817;BME280;8009;50.070;8.232;2023-04-26T00:15:27;100166.69;;;7.08;58.78
15817;BME280;8009;50.070;8.232;2023-04-26T00:17:56;100165.94;;;6.75;59.70
15817;BME280;8009;50.070;8.232;2023-04-26T00:20:24;100165.22;;;6.57;59.91
15817;BME280;8009;50.070;8.232;2023-04-26T00:22:53;100161.66;;;6.56;59.15
15817;BME280;8009;50.070;8.232;2023-04-26T00:25:21;100167.50;;;6.79;59.63
15817;BME280;8009;50.070;8.232;2023-04-26T00:27:51;100163.91;;;6.64;60.36
15817;BME280;8009;50.070;8.232;2023-04-26T00:30:21;100161.38;;;6.77;59.98
15817;BME280;8009;50.070;8.232;2023-04-26T00:32:50;100165.78;;;6.78;60.21
15817;BME280;8009;50.070;8.232;2023-04-26T00:35:18;100168.56;;;6.45;61.72
15817;BME280;8009;50.070;8.232;2023-04-26T00:37:47;100158.88;;;6.74;60.62
15817;BME280;8009;50.070;8.232;2023-04-26T00:40:15;100164.31;;;6.41;62.01
15817;BME280;8009;50.070;8.232;2023-04-26T00:42:44;100163.88;;;6.17;63.57
15817;BME280;8009;50.070;8.232;2023-04-26T00:45:13;100161.91;;;6.36;61.35
15817;BME280;8009;50.070;8.232;2023-04-26T00:47:44;100169.06;;;6.20;61.57
15817;BME280;8009;50.070;8.232;2023-04-26T00:50:12;100169.50;;;6.28;62.02
15817;BME280;8009;50.070;8.232;2023-04-26T00:52:42;100164.66;;;6.66;60.27
15817;BME280;8009;50.070;8.232;2023-04-26T00:55:10;100167.50;;;6.16;61.96
15817;BME280;8009;50.070;8.232;2023-04-26T00:57:39;100171.97;;;5.82;62.09
15817;BME280;8009;50.070;8.232;2023-04-26T01:00:08;100169.44;;;5.46;63.94
15817;BME280;8009;50.070;8.232;2023-04-26T01:02:37;100176.81;;;5.41;63.82
15817;BME280;8009;50.070;8.232;2023-04-26T01:05:08;100169.19;;;5.50;64.32
15817;BME280;8009;50.070;8.232;2023-04-26T01:07:37;100169.59;;;5.76;64.39
15817;BME280;8009;50.070;8.232;2023-04-26T01:10:06;100166.81;;;6.28;61.82
15817;BME280;8009;50.070;8.232;2023-04-26T01:12:35;100168.53;;;5.45;64.47
15817;BME280;8009;50.070;8.232;2023-04-26T01:15:05;100171.56;;;5.39;65.16
15817;BME280;8009;50.070;8.232;2023-04-26T01:17:33;100171.63;;;5.20;64.57
15817;BME280;8009;50.070;8.232;2023-04-26T01:20:03;100171.56;;;5.39;64.90
15817;BME280;8009;50.070;8.232;2023-04-26T01:22:35;100171.56;;;5.39;64.96
15817;BME280;8009;50.070;8.232;2023-04-26T01:25:05;100177.84;;;5.21;65.75
15817;BME280;8009;50.070;8.232;2023-04-26T01:27:34;100173.88;;;5.10;65.82
15817;BME280;8009;50.070;8.232;2023-04-26T01:30:03;100173.88;;;5.45;64.69
15817;BME280;8009;50.070;8.232;2023-04-26T01:32:32;100166.50;;;5.16;66.17
15817;BME280;8009;50.070;8.232;2023-04-26T01:35:01;100179.50;;;5.23;65.56
15817;BME280;8009;50.070;8.232;2023-04-26T01:37:29;100174.94;;;5.08;65.98
15817;BME280;8009;50.070;8.232;2023-04-26T01:40:00;100178.84;;;5.01;65.91
15817;BME280;8009;50.070;8.232;2023-04-26T01:42:30;100177.56;;;4.91;66.24
15817;BME280;8009;50.070;8.232;2023-04-26T01:44:59;100176.31;;;5.15;65.21
15817;BME280;8009;50.070;8.232;2023-04-26T01:47:27;100188.03;;;4.95;65.98
15817;BME280;8009;50.070;8.232;2023-04-26T01:49:55;100185.56;;;4.73;66.78
15817;BME280;8009;50.070;8.232;2023-04-26T01:52:24;100183.59;;;4.77;66.18
15817;BME280;8009;50.070;8.232;2023-04-26T01:54:52;100186.00;;;4.64;66.71
15817;BME280;8009;50.070;8.232;2023-04-26T01:57:24;100181.47;;;4.66;67.03
15817;BME280;8009;50.070;8.232;2023-04-26T01:59:52;100188.44;;;4.69;67.14
15817;BME280;8009;50.070;8.232;2023-04-26T02:02:21;100185.22;;;4.62;67.98
15817;BME280;8009;50.070;8.232;2023-04-26T02:04:49;100186.81;;;4.47;69.18
15817;BME280;8009;50.070;8.232;2023-04-26T02:07:17;100186.81;;;4.66;67.83
15817;BME280;8009;50.070;8.232;2023-04-26T02:09:46;100187.53;;;4.70;68.28
15817;BME280;8009;50.070;8.232;2023-04-26T02:12:14;100180.53;;;4.29;69.48
15817;BME280;8009;50.070;8.232;2023-04-26T02:14:45;100180.97;;;4.58;69.07
15817;BME280;8009;50.070;8.232;2023-04-26T02:17:13;100175.13;;;4.86;67.16
15817;BME280;8009;50.070;8.232;2023-04-26T02:19:41;100181.47;;;4.47;68.27
15817;BME280;8009;50.070;8.232;2023-04-26T02:22:10;100189.75;;;4.60;67.82
15817;BME280;8009;50.070;8.232;2023-04-26T02:24:38;100185.94;;;4.66;67.42
15817;BME280;8009;50.070;8.232;2023-04-26T02:27:07;100181.25;;;4.52;68.84
15817;BME280;8009;50.070;8.232;2023-04-26T02:29:35;100178.44;;;4.55;68.19
15817;BME280;8009;50.070;8.232;2023-04-26T02:32:06;100189.16;;;4.72;67.12
15817;BME280;8009;50.070;8.232;2023-04-26T02:34:35;100184.19;;;5.18;65.21
15817;BME280;8009;50.070;8.232;2023-04-26T02:37:03;100181.97;;;4.55;67.82
15817;BME280;8009;50.070;8.232;2023-04-26T02:39:31;100185.94;;;4.47;67.89
15817;BME280;8009;50.070;8.232;2023-04-26T02:42:00;100180.16;;;4.56;67.81
15817;BME280;8009;50.070;8.232;2023-04-26T02:44:28;100182.91;;;4.54;68.22
15817;BME280;8009;50.070;8.232;2023-04-26T02:46:57;100180.53;;;4.48;67.62
15817;BME280;8009;50.070;8.232;2023-04-26T02:49:29;100179.28;;;4.55;67.26
15817;BME280;8009;50.070;8.232;2023-04-26T02:51:57;100175.56;;;4.77;67.01
15817;BME280;8009;50.070;8.232;2023-04-26T02:54:25;100176.13;;;4.47;67.50
15817;BME280;8009;50.070;8.232;2023-04-26T02:56:54;100177.75;;;4.69;66.82
15817;BME280;8009;50.070;8.232;2023-04-26T02:59:22;100182.56;;;4.43;67.15
15817;BME280;8009;50.070;8.232;2023-04-26T03:01:50;100176.25;;;4.44;67.17
15817;BME280;8009;50.070;8.232;2023-04-26T03:04:19;100176.19;;;4.46;67.36
15817;BME280;8009;50.070;8.232;2023-04-26T03:06:49;100166.34;;;4.27;68.15
15817;BME280;8009;50.070;8.232;2023-04-26T03:09:18;100169.09;;;4.45;67.77
15817;BME280;8009;50.070;8.232;2023-04-26T03:11:46;100179.94;;;4.60;67.02
15817;BME280;8009;50.070;8.232;2023-04-26T03:14:14;100171.06;;;4.22;67.88
15817;BME280;8009;50.070;8.232;2023-04-26T03:16:43;100171.91;;;4.42;67.84
15817;BME280;8009;50.070;8.232;2023-04-26T03:19:12;100170.78;;;4.28;67.78
15817;BME280;8009;50.070;8.232;2023-04-26T03:21:41;100176.19;;;4.46;67.06
15817;BME280;8009;50.070;8.232;2023-04-26T03:24:12;100169.03;;;4.27;67.97
15817;BME280;8009;50.070;8.232;2023-04-26T03:26:40;100174.31;;;4.10;67.98
15817;BME280;8009;50.070;8.232;2023-04-26T03:29:08;100173.34;;;4.11;68.25
15817;BME280;8009;50.070;8.232;2023-04-26T03:31:37;100164.38;;;4.50;67.38
15817;BME280;8009;50.070;8.232;2023-04-26T03:34:05;100165.34;;;4.30;67.29
15817;BME280;8009;50.070;8.232;2023-04-26T03:36:33;100165.91;;;4.55;67.14
15817;BME280;8009;50.070;8.232;2023-04-26T03:39:02;100168.97;;;4.84;65.77
15817;BME280;8009;50.070;8.232;2023-04-26T03:41:34;100171.69;;;4.65;66.71
15817;BME280;8009;50.070;8.232;2023-04-26T03:44:04;100162.69;;;5.02;65.76
15817;BME280;8009;50.070;8.232;2023-04-26T03:46:33;100165.34;;;5.38;64.28
15817;BME280;8009;50.070;8.232;2023-04-26T03:49:01;100160.03;;;5.37;64.15
15817;BME280;8009;50.070;8.232;2023-04-26T03:51:29;100173.66;;;5.15;64.68
15817;BME280;8009;50.070;8.232;2023-04-26T03:53:58;100176.66;;;5.26;64.59
15817;BME280;8009;50.070;8.232;2023-04-26T03:56:26;100175.63;;;5.29;64.48
15817;BME280;8009;50.070;8.232;2023-04-26T03:58:57;100165.16;;;5.42;64.94
15817;BME280;8009;50.070;8.232;2023-04-26T04:01:25;100155.84;;;5.49;63.59
15817;BME280;8009;50.070;8.232;2023-04-26T04:03:54;100155.91;;;5.65;63.80
15817;BME280;8009;50.070;8.232;2023-04-26T04:06:22;100155.06;;;5.29;65.81
15817;BME280;8009;50.070;8.232;2023-04-26T04:08:50;100163.13;;;5.47;65.81
15817;BME280;8009;50.070;8.232;2023-04-26T04:11:19;100163.22;;;4.74;68.86
15817;BME280;8009;50.070;8.232;2023-04-26T04:13:47;100166.66;;;4.76;68.98
15817;BME280;8009;50.070;8.232;2023-04-26T04:16:21;100164.59;;;5.00;67.81
15817;BME280;8009;50.070;8.232;2023-04-26T04:18:49;100172.19;;;5.27;66.68
15817;BME280;8009;50.070;8.232;2023-04-26T04:21:17;100170.44;;;5.43;66.02
15817;BME280;8009;50.070;8.232;2023-04-26T04:23:46;100169.50;;;5.44;65.99
15817;BME280;8009;50.070;8.232;2023-04-26T04:26:14;100175.84;;;5.42;65.84
15817;BME280;8009;50.070;8.232;2023-04-26T04:28:43;100175.06;;;5.57;65.38
15817;BME280;8009;50.070;8.232;2023-04-26T04:31:13;100175.16;;;5.55;66.01
15817;BME280;8009;50.070;8.232;2023-04-26T04:33:44;100177.06;;;5.36;67.19
15817;BME280;8009;50.070;8.232;2023-04-26T04:36:13;100190.41;;;5.19;67.34
15817;BME280;8009;50.070;8.232;2023-04-26T04:38:43;100191.25;;;5.38;67.03
15817;BME280;8009;50.070;8.232;2023-04-26T04:41:11;100186.88;;;5.53;66.15
15817;BME280;8009;50.070;8.232;2023-04-26T04:43:40;100183.19;;;5.55;66.00
15817;BME280;8009;50.070;8.232;2023-04-26T04:46:08;100198.66;;;5.50;67.16
15817;BME280;8009;50.070;8.232;2023-04-26T04:48:37;100207.75;;;5.29;67.48
15817;BME280;8009;50.070;8.232;2023-04-26T04:51:08;100210.69;;;5.59;65.90
15817;BME280;8009;50.070;8.232;2023-04-26T04:53:36;100213.97;;;5.29;68.16
15817;BME280;8009;50.070;8.232;2023-04-26T04:56:05;100211.00;;;5.70;65.66
15817;BME280;8009;50.070;8.232;2023-04-26T04:58:33;100208.72;;;4.92;69.96
15817;BME280;8009;50.070;8.232;2023-04-26T05:01:02;100215.25;;;4.86;69.03
15817;BME280;8009;50.070;8.232;2023-04-26T05:03:30;100210.28;;;5.49;67.47
15817;BME280;8009;50.070;8.232;2023-04-26T05:05:59;100212.88;;;5.85;65.86
15817;BME280;8009;50.070;8.232;2023-04-26T05:08:30;100209.72;;;5.95;65.67
15817;BME280;8009;50.070;8.232;2023-04-26T05:10:58;100214.72;;;5.50;67.26
15817;BME280;8009;50.070;8.232;2023-04-26T05:13:27;100212.72;;;5.89;65.77
15817;BME280;8009;50.070;8.232;2023-04-26T05:15:55;100215.16;;;5.76;65.99
15817;BME280;8009;50.070;8.232;2023-04-26T05:18:23;100224.31;;;5.72;67.15
15817;BME280;8009;50.070;8.232;2023-04-26T05:20:52;100223.28;;;5.40;68.49
15817;BME280;8009;50.070;8.232;2023-04-26T05:23:20;100217.69;;;5.79;67.49
15817;BME280;8009;50.070;8.232;2023-04-26T05:25:51;100217.59;;;6.15;65.47
15817;BME280;8009;50.070;8.232;2023-04-26T05:28:19;100218.53;;;5.79;64.45
15817;BME280;8009;50.070;8.232;2023-04-26T05:30:48;100224.53;;;5.84;66.13
15817;BME280;8009;50.070;8.232;2023-04-26T05:33:16;100226.97;;;5.72;64.08
15817;BME280;8009;50.070;8.232;2023-04-26T05:35:44;100222.72;;;5.68;63.69
15817;BME280;8009;50.070;8.232;2023-04-26T05:38:13;100232.28;;;5.73;65.33
15817;BME280;8009;50.070;8.232;2023-04-26T05:40:41;100223.97;;;5.95;63.45
15817;BME280;8009;50.070;8.232;2023-04-26T05:43:12;100221.53;;;5.91;62.42
15817;BME280;8009;50.070;8.232;2023-04-26T05:45:49;100220.66;;;5.90;63.83
15817;BME280;8009;50.070;8.232;2023-04-26T05:48:19;100227.91;;;6.05;62.26
15817;BME280;8009;50.070;8.232;2023-04-26T05:50:47;100227.75;;;6.42;61.33
15817;BME280;8009;50.070;8.232;2023-04-26T05:53:16;100233.81;;;6.45;60.45
15817;BME280;8009;50.070;8.232;2023-04-26T05:55:44;100232.19;;;6.58;61.75
15817;BME280;8009;50.070;8.232;2023-04-26T05:58:15;100237.91;;;6.19;61.10
15817;BME280;8009;50.070;8.232;2023-04-26T06:00:44;100237.44;;;6.60;59.49
15817;BME280;8009;50.070;8.232;2023-04-26T06:03:12;100238.88;;;6.83;58.91
15817;BME280;8009;50.070;8.232;2023-04-26T06:05:40;100239.47;;;6.88;59.66
15817;BME280;8009;50.070;8.232;2023-04-26T06:08:09;100245.31;;;7.26;56.60
15817;BME280;8009;50.070;8.232;2023-04-26T06:10:37;100242.00;;;6.75;58.75
15817;BME280;8009;50.070;8.232;2023-04-26T06:13:05;100248.97;;;6.94;57.78
15817;BME280;8009;50.070;8.232;2023-04-26T06:15:37;100245.63;;;7.36;56.28
15817;BME280;8009;50.070;8.232;2023-04-26T06:18:06;100246.91;;;6.99;57.59
15817;BME280;8009;50.070;8.232;2023-04-26T06:20:34;100259.72;;;7.25;57.02
15817;BME280;8009;50.070;8.232;2023-04-26T06:23:03;100247.50;;;7.04;57.19
15817;BME280;8009;50.070;8.232;2023-04-26T06:25:31;100251.16;;;6.87;56.87
15817;BME280;8009;50.070;8.232;2023-04-26T06:28:01;100253.34;;;7.42;56.08
15817;BME280;8009;50.070;8.232;2023-04-26T06:30:29;100255.09;;;7.27;56.51
15817;BME280;8009;50.070;8.232;2023-04-26T06:33:00;100249.25;;;7.81;56.03
15817;BME280;8009;50.070;8.232;2023-04-26T06:35:29;100246.31;;;8.00;54.24
15817;BME280;8009;50.070;8.232;2023-04-26T06:37:57;100243.97;;;8.38;53.85
15817;BME280;8009;50.070;8.232;2023-04-26T06:40:25;100248.25;;;7.98;56.95
15817;BME280;8009;50.070;8.232;2023-04-26T06:42:54;100248.63;;;8.35;53.38
15817;BME280;8009;50.070;8.232;2023-04-26T06:45:22;100239.50;;;8.23;53.59
15817;BME280;8009;50.070;8.232;2023-04-26T06:47:51;100247.03;;;8.46;51.53
15817;BME280;8009;50.070;8.232;2023-04-26T06:50:22;100244.22;;;8.19;53.10
15817;BME280;8009;50.070;8.232;2023-04-26T06:52:50;100240.38;;;8.23;54.91
15817;BME280;8009;50.070;8.232;2023-04-26T06:55:19;100232.66;;;7.89;54.95
15817;BME280;8009;50.070;8.232;2023-04-26T06:57:48;100239.56;;;8.37;51.75
15817;BME280;8009;50.070;8.232;2023-04-26T07:00:17;100239.63;;;8.21;52.47
15817;BME280;8009;50.070;8.232;2023-04-26T07:02:45;100241.44;;;8.35;50.50
15817;BME280;8009;50.070;8.232;2023-04-26T07:05:13;100248.78;;;8.47;49.98
15817;BME280;8009;50.070;8.232;2023-04-26T07:07:44;100249.41;;;8.37;50.93
15817;BME280;8009;50.070;8.232;2023-04-26T07:10:14;100249.44;;;9.07;50.36
15817;BME280;8009;50.070;8.232;2023-04-26T07:12:42;100249.97;;;8.85;50.17
15817;BME280;8009;50.070;8.232;2023-04-26T07:15:11;100251.25;;;8.65;48.59
15817;BME280;8009;50.070;8.232;2023-04-26T07:17:39;100250.63;;;8.88;49.51
15817;BME280;8009;50.070;8.232;2023-04-26T07:20:09;100246.53;;;8.83;49.06
15817;BME280;8009;50.070;8.232;2023-04-26T07:22:39;100237.75;;;9.47;48.02
15817;BME280;8009;50.070;8.232;2023-04-26T07:25:11;100239.81;;;8.61;49.05
15817;BME280;8009;50.070;8.232;2023-04-26T07:27:39;100240.13;;;9.12;48.69
15817;BME280;8009;50.070;8.232;2023-04-26T07:30:09;100239.81;;;9.57;48.82
15817;BME280;8009;50.070;8.232;2023-04-26T07:32:37;100243.88;;;9.10;49.06
15817;BME280;8009;50.070;8.232;2023-04-26T07:35:06;100233.91;;;9.24;48.48
15817;BME280;8009;50.070;8.232;2023-04-26T07:37:40;100232.78;;;9.14;48.58
15817;BME280;8009;50.070;8.232;2023-04-26T07:40:12;100232.25;;;9.49;46.15
15817;BME280;8009;50.070;8.232;2023-04-26T07:42:41;100227.25;;;9.83;45.09
15817;BME280;8009;50.070;8.232;2023-04-26T07:45:10;100232.41;;;9.60;47.20
15817;BME280;8009;50.070;8.232;2023-04-26T07:47:39;100231.63;;;9.18;46.51
15817;BME280;8009;50.070;8.232;2023-04-26T07:50:09;100232.63;;;9.03;45.76
15817;BME280;8009;50.070;8.232;2023-04-26T07:52:37;100226.19;;;9.33;45.90
15817;BME280;8009;50.070;8.232;2023-04-26T07:55:10;100217.94;;;10.27;44.33
15817;BME280;8009;50.070;8.232;2023-04-26T07:57:39;100213.91;;;10.19;43.61
15817;BME280;8009;50.070;8.232;2023-04-26T08:00:08;100222.84;;;9.82;44.39
15817;BME280;8009;50.070;8.232;2023-04-26T08:02:37;100212.63;;;10.25;45.30
15817;BME280;8009;50.070;8.232;2023-04-26T08:05:06;100214.44;;;10.37;43.05
15817;BME280;8009;50.070;8.232;2023-04-26T08:07:35;100219.63;;;10.53;43.37
15817;BME280;8009;50.070;8.232;2023-04-26T08:10:03;100222.41;;;10.64;42.58
15817;BME280;8009;50.070;8.232;2023-04-26T08:12:36;100229.94;;;10.85;50.96
15817;BME280;8009;50.070;8.232;2023-04-26T08:15:06;100223.97;;;10.80;45.97
15817;BME280;8009;50.070;8.232;2023-04-26T08:17:34;100221.34;;;10.41;44.42
15817;BME280;8009;50.070;8.232;2023-04-26T08:20:03;100226.28;;;10.60;43.01
15817;BME280;8009;50.070;8.232;2023-04-26T08:22:33;100216.06;;;10.40;43.90
15817;BME280;8009;50.070;8.232;2023-04-26T08:25:02;100221.84;;;10.85;46.49
15817;BME280;8009;50.070;8.232;2023-04-26T08:27:31;100217.59;;;11.17;45.14
15817;BME280;8009;50.070;8.232;2023-04-26T08:30:09;100215.88;;;10.80;42.37
15817;BME280;8009;50.070;8.232;2023-04-26T08:32:39;100221.69;;;10.99;44.13
15817;BME280;8009;50.070;8.232;2023-04-26T08:35:08;100218.34;;;10.95;43.51
15817;BME280;8009;50.070;8.232;2023-04-26T08:37:37;100218.19;;;10.73;43.50
15817;BME280;8009;50.070;8.232;2023-04-26T08:40:07;100223.88;;;10.32;44.97
15817;BME280;8009;50.070;8.232;2023-04-26T08:42:39;100223.34;;;10.27;45.71
15817;BME280;8009;50.070;8.232;2023-04-26T08:45:11;100212.78;;;10.60;45.63
15817;BME280;8009;50.070;8.232;2023-04-26T08:47:43;100220.63;;;10.27;46.15
15817;BME280;8009;50.070;8.232;2023-04-26T08:50:13;100223.75;;;9.55;45.93
15817;BME280;8009;50.070;8.232;2023-04-26T08:52:42;100224.47;;;9.97;46.79
15817;BME280;8009;50.070;8.232;2023-04-26T08:55:11;100217.34;;;10.60;45.96
15817;BME280;8009;50.070;8.232;2023-04-26T08:57:41;100223.81;;;9.93;45.29
15817;BME280;8009;50.070;8.232;2023-04-26T09:00:14;100212.56;;;10.63;44.14
15817;BME280;8009;50.070;8.232;2023-04-26T09:02:46;100218.16;;;10.86;41.99
15817;BME280;8009;50.070;8.232;2023-04-26T09:05:15;100211.75;;;11.00;40.36
15817;BME280;8009;50.070;8.232;2023-04-26T09:07:49;100216.09;;;10.89;41.86
15817;BME280;8009;50.070;8.232;2023-04-26T09:10:19;100209.44;;;10.57;44.82
15817;BME280;8009;50.070;8.232;2023-04-26T09:12:50;100210.03;;;11.22;42.74
15817;BME280;8009;50.070;8.232;2023-04-26T09:15:24;100210.25;;;11.19;43.16
15817;BME280;8009;50.070;8.232;2023-04-26T09:17:52;100200.94;;;11.23;42.45
15817;BME280;8009;50.070;8.232;2023-04-26T09:20:23;100204.09;;;11.41;41.59
15817;BME280;8009;50.070;8.232;2023-04-26T09:22:53;100206.13;;;11.62;41.93
15817;BME280;8009;50.070;8.232;2023-04-26T09:25:26;100201.28;;;10.82;43.58
15817;BME280;8009;50.070;8.232;2023-04-26T09:27:55;100206.19;;;10.64;44.76
15817;BME280;8009;50.070;8.232;2023-04-26T09:30:27;100204.50;;;10.87;42.26
15817;BME280;8009;50.070;8.232;2023-04-26T09:32:57;100197.53;;;10.72;42.03
15817;BME280;8009;50.070;8.232;2023-04-26T09:35:29;100194.19;;;10.32;43.22
15817;BME280;8009;50.070;8.232;2023-04-26T09:37:59;100194.06;;;10.33;44.69
15817;BME280;8009;50.070;8.232;2023-04-26T09:40:29;100189.38;;;10.61;42.42
15817;BME280;8009;50.070;8.232;2023-04-26T09:42:59;100182.28;;;10.84;44.43
15817;BME280;8009;50.070;8.232;2023-04-26T09:45:32;100182.03;;;10.63;44.14
15817;BME280;8009;50.070;8.232;2023-04-26T09:48:15;100185.28;;;10.92;44.05
15817;BME280;8009;50.070;8.232;2023-04-26T09:50:44;100190.63;;;10.68;41.75
15817;BME280;8009;50.070;8.232;2023-04-26T09:53:24;100189.84;;;10.79;41.88
15817;BME280;8009;50.070;8.232;2023-04-26T09:55:54;100187.69;;;10.84;41.88
15817;BME280;8009;50.070;8.232;2023-04-26T09:58:22;100184.22;;;10.19;42.96
15817;BME280;8009;50.070;8.232;2023-04-26T10:00:54;100184.72;;;10.63;42.36
15817;BME280;8009;50.070;8.232;2023-04-26T10:03:23;100186.31;;;11.26;40.59
15817;BME280;8009;50.070;8.232;2023-04-26T10:05:52;100180.03;;;11.85;39.32
15817;BME280;8009;50.070;8.232;2023-04-26T10:08:21;100185.31;;;11.51;40.51
15817;BME280;8009;50.070;8.232;2023-04-26T10:10:50;100188.34;;;11.11;41.82
15817;BME280;8009;50.070;8.232;2023-04-26T10:13:18;100188.38;;;10.98;42.66
15817;BME280;8009;50.070;8.232;2023-04-26T10:15:47;100189.94;;;11.38;44.31
15817;BME280;8009;50.070;8.232;2023-04-26T10:18:20;100184.47;;;11.27;40.41
15817;BME280;8009;50.070;8.232;2023-04-26T10:20:51;100182.75;;;11.02;42.62
15817;BME280;8009;50.070;8.232;2023-04-26T10:23:22;100178.75;;;11.42;42.61
15817;BME280;8009;50.070;8.232;2023-04-26T10:25:53;100170.56;;;12.02;42.57
15817;BME280;8009;50.070;8.232;2023-04-26T10:31:20;100165.03;;;11.45;39.72
15817;BME280;8009;50.070;8.232;2023-04-26T10:34:19;100164.06;;;12.15;39.16
15817;BME280;8009;50.070;8.232;2023-04-26T10:37:07;100164.22;;;12.14;41.51
15817;BME280;8009;50.070;8.232;2023-04-26T10:39:35;100163.84;;;12.41;44.54
15817;BME280;8009;50.070;8.232;2023-04-26T10:42:20;100156.44;;;12.09;38.57
15817;BME280;8009;50.070;8.232;2023-04-26T10:44:52;100149.56;;;12.28;40.75
15817;BME280;8009;50.070;8.232;2023-04-26T10:47:27;100142.50;;;13.46;41.25
15817;BME280;8009;50.070;8.232;2023-04-26T10:50:09;100147.63;;;13.28;41.72
15817;BME280;8009;50.070;8.232;2023-04-26T10:53:04;100139.72;;;12.38;40.42
15817;BME280;8009;50.070;8.232;2023-04-26T10:55:37;100146.97;;;11.92;41.02
15817;BME280;8009;50.070;8.232;2023-04-26T10:58:24;100147.38;;;11.64;40.72
15817;BME280;8009;50.070;8.232;2023-04-26T11:01:03;100143.69;;;11.65;38.26
15817;BME280;8009;50.070;8.232;2023-04-26T11:03:32;100139.94;;;12.01;38.92
15817;BME280;8009;50.070;8.232;2023-04-26T11:06:08;100134.88;;;11.85;39.50
15817;BME280;8009;50.070;8.232;2023-04-26T11:08:38;100130.41;;;12.74;37.02
15817;BME280;8009;50.070;8.232;2023-04-26T11:11:09;100126.34;;;12.80;36.99
15817;BME280;8009;50.070;8.232;2023-04-26T11:13:39;100122.16;;;13.51;37.51
15817;BME280;8009;50.070;8.232;2023-04-26T11:16:21;100109.84;;;13.47;38.26
15817;BME280;8009;50.070;8.232;2023-04-26T11:18:53;100115.81;;;12.43;36.86
15817;BME280;8009;50.070;8.232;2023-04-26T11:21:24;100113.66;;;13.12;38.62
15817;BME280;8009;50.070;8.232;2023-04-26T11:23:53;100108.16;;;12.71;36.64
15817;BME280;8009;50.070;8.232;2023-04-26T11:26:22;100114.00;;;11.99;37.70
15817;BME280;8009;50.070;8.232;2023-04-26T11:28:51;100125.94;;;12.30;36.84
15817;BME280;8009;50.070;8.232;2023-04-26T11:31:19;100113.16;;;12.86;36.31
15817;BME280;8009;50.070;8.232;2023-04-26T11:33:47;100098.91;;;13.05;39.00
15817;BME280;8009;50.070;8.232;2023-04-26T11:36:15;100103.53;;;13.26;39.87
15817;BME280;8009;50.070;8.232;2023-04-26T11:38:47;100097.84;;;13.29;38.19
15817;BME280;8009;50.070;8.232;2023-04-26T11:41:16;100094.47;;;13.78;35.38
15817;BME280;8009;50.070;8.232;2023-04-26T11:43:44;100105.50;;;13.24;37.39
15817;BME280;8009;50.070;8.232;2023-04-26T11:46:13;100099.19;;;13.55;39.06
15817;BME280;8009;50.070;8.232;2023-04-26T11:48:41;100103.88;;;12.57;37.41
15817;BME280;8009;50.070;8.232;2023-04-26T11:51:10;100092.69;;;12.39;39.10
15817;BME280;8009;50.070;8.232;2023-04-26T11:53:40;100095.00;;;12.55;38.08
15817;BME280;8009;50.070;8.232;2023-04-26T11:56:16;100094.53;;;12.38;39.48
15817;BME280;8009;50.070;8.232;2023-04-26T11:58:46;100090.63;;;11.98;40.16
15817;BME280;8009;50.070;8.232;2023-04-26T12:01:22;100084.59;;;12.82;39.56
15817;BME280;8009;50.070;8.232;2023-04-26T12:03:52;100091.75;;;11.84;39.08
15817;BME280;8009;50.070;8.232;2023-04-26T12:06:25;100089.47;;;12.56;39.28
15817;BME280;8009;50.070;8.232;2023-04-26T12:08:57;100082.69;;;12.94;37.81
15817;BME280;8009;50.070;8.232;2023-04-26T12:11:28;100080.72;;;12.96;36.20
15817;BME280;8009;50.070;8.232;2023-04-26T12:13:57;100083.06;;;12.57;36.70
15817;BME280;8009;50.070;8.232;2023-04-26T12:16:26;100082.72;;;12.39;37.86
15817;BME280;8009;50.070;8.232;2023-04-26T12:18:54;100091.47;;;12.86;37.45
15817;BME280;8009;50.070;8.232;2023-04-26T12:21:23;100087.53;;;12.25;37.56
15817;BME280;8009;50.070;8.232;2023-04-26T12:23:52;100089.41;;;12.79;38.72
15817;BME280;8009;50.070;8.232;2023-04-26T12:26:20;100075.44;;;13.15;35.87
15817;BME280;8009;50.070;8.232;2023-04-26T12:28:51;100076.34;;;13.58;35.00
15817;BME280;8009;50.070;8.232;2023-04-26T12:31:20;100072.91;;;13.35;34.25
15817;BME280;8009;50.070;8.232;2023-04-26T12:33:48;100071.47;;;13.52;34.38
15817;BME280;8009;50.070;8.232;2023-04-26T12:36:16;100078.44;;;13.75;35.50
15817;BME280;8009;50.070;8.232;2023-04-26T12:38:45;100076.63;;;13.55;36.66
15817;BME280;8009;50.070;8.232;2023-04-26T12:41:13;100072.09;;;13.65;34.48
15817;BME280;8009;50.070;8.232;2023-04-26T12:43:42;100078.13;;;13.69;36.61
15817;BME280;8009;50.070;8.232;2023-04-26T12:46:12;100066.75;;;14.05;37.59
15817;BME280;8009;50.070;8.232;2023-04-26T12:48:41;100062.09;;;13.96;36.49
15817;BME280;8009;50.070;8.232;2023-04-26T12:51:09;100069.22;;;13.87;37.45
15817;BME280;8009;50.070;8.232;2023-04-26T12:53:38;100063.06;;;14.56;36.66
15817;BME280;8009;50.070;8.232;2023-04-26T12:56:06;100065.84;;;13.95;35.04
15817;BME280;8009;50.070;8.232;2023-04-26T12:58:34;100063.09;;;13.85;35.25
15817;BME280;8009;50.070;8.232;2023-04-26T13:01:03;100070.25;;;13.24;35.39
15817;BME280;8009;50.070;8.232;2023-04-26T13:03:34;100064.97;;;13.43;36.06
15817;BME280;8009;50.070;8.232;2023-04-26T13:06:03;100055.56;;;14.39;36.38
15817;BME280;8009;50.070;8.232;2023-04-26T13:08:32;100064.38;;;14.62;34.77
15817;BME280;8009;50.070;8.232;2023-04-26T13:11:00;100061.53;;;14.33;33.88
15817;BME280;8009;50.070;8.232;2023-04-26T13:13:29;100064.88;;;14.06;34.65
15817;BME280;8009;50.070;8.232;2023-04-26T13:15:57;100066.25;;;13.90;37.00
15817;BME280;8009;50.070;8.232;2023-04-26T13:18:25;100068.97;;;13.90;35.71
15817;BME280;8009;50.070;8.232;2023-04-26T13:20:56;100072.50;;;14.12;37.50
15817;BME280;8009;50.070;8.232;2023-04-26T13:23:24;100070.56;;;14.03;36.16